メインページ
METAR-TAF:

METAR-TAF

空港 :

Matagami, ケベック州, カナダ

緯度: 49-46N, 経度: 077-49W, 海抜: 281m

現時点の気象観測

当レポートは34分前の20:00(UTC)に作成
西の風 12kt、最大23ktの突風を伴う
気温 22°C
湿度 38%
気圧 1008 hPa
視程: 14.5km
高度8500ftの雲はほとんどない

METAR: CYNM 192000Z AUTO 28012G23KT 9SM FEW085 22/07 A2978 RMK SLP087 DENSITY ALT 2100FT

時間: 16:34 (20:34 UTC)


TAF: 見つかりません

4,000以上の空港の気象観測と天気予報(METAR報とTAF報)

利用可能な観測所は地図上に黄色い丸と赤い丸で示す。

丸の上にカーソルを重ねると観測所名を参照できる。

次にクリックすると気象観測と天気予報を参照できる。

マップの切り替え:黒色「×」印の緑ボタンをクリックして拡大、「-」印の緑ボタンをクリックして縮小、緑色の三角印をクリックして隣りの地図に切り替え


METAR-TAF: